createdAt,value
2023-10-01T00:00:51.084Z,1.30
2023-10-01T00:03:21.760Z,1.80
2023-10-01T00:05:54.137Z,1.80
2023-10-01T00:08:24.817Z,1.80
2023-10-01T00:10:55.602Z,1.70
2023-10-01T00:13:27.888Z,1.60
2023-10-01T00:15:58.763Z,1.50
2023-10-01T00:18:29.964Z,1.70
2023-10-01T00:21:01.317Z,1.70
2023-10-01T00:23:32.018Z,1.70
2023-10-01T00:26:03.055Z,1.90
2023-10-01T00:28:33.846Z,1.70
2023-10-01T00:31:04.564Z,1.90
2023-10-01T00:33:35.708Z,1.50
2023-10-01T00:36:07.345Z,1.70
2023-10-01T00:38:38.577Z,1.30
2023-10-01T00:41:10.440Z,1.40
2023-10-01T00:43:42.730Z,1.20
2023-10-01T00:46:13.751Z,1.60
2023-10-01T00:48:45.882Z,1.30
2023-10-01T00:51:21.288Z,1.80
2023-10-01T00:53:53.343Z,1.50
2023-10-01T00:56:26.633Z,1.20
2023-10-01T00:58:58.229Z,1.40
2023-10-01T01:01:29.505Z,1.50
2023-10-01T01:04:00.460Z,2.00
2023-10-01T01:06:38.114Z,1.30
2023-10-01T01:09:12.537Z,1.40
2023-10-01T01:11:43.575Z,1.50
2023-10-01T01:14:14.540Z,1.40
2023-10-01T01:16:46.737Z,1.30
2023-10-01T01:19:17.730Z,1.40
2023-10-01T01:21:49.137Z,1.20
2023-10-01T01:24:19.845Z,1.30
2023-10-01T01:26:53.056Z,1.50
2023-10-01T01:29:30.977Z,1.70
2023-10-01T01:32:08.665Z,1.70
2023-10-01T01:34:41.957Z,1.20
2023-10-01T01:37:31.930Z,1.10
2023-10-01T01:40:10.380Z,1.30
2023-10-01T01:42:41.367Z,1.20
2023-10-01T01:45:21.367Z,1.80
2023-10-01T01:47:52.046Z,1.00
2023-10-01T01:50:27.925Z,1.30
2023-10-01T01:52:59.155Z,1.30
2023-10-01T01:55:30.673Z,1.20
2023-10-01T01:58:08.217Z,1.20
2023-10-01T02:00:47.837Z,1.10
2023-10-01T02:03:19.546Z,1.20
2023-10-01T02:05:50.305Z,1.00
2023-10-01T02:08:36.441Z,1.30
2023-10-01T02:11:10.584Z,1.40
2023-10-01T02:13:42.765Z,1.20
2023-10-01T02:16:36.952Z,1.70
2023-10-01T02:19:22.865Z,1.40
2023-10-01T02:22:01.275Z,1.30
2023-10-01T02:24:49.580Z,1.20
2023-10-01T02:27:25.448Z,1.60
2023-10-01T02:30:17.799Z,1.30
2023-10-01T02:33:08.557Z,1.40
2023-10-01T02:35:42.474Z,1.90
2023-10-01T02:38:32.612Z,1.30
2023-10-01T02:41:06.010Z,1.60
2023-10-01T02:43:42.493Z,1.50
2023-10-01T02:46:15.739Z,1.40
2023-10-01T02:48:48.984Z,1.20
2023-10-01T02:51:33.660Z,1.50
2023-10-01T02:54:06.811Z,1.70
2023-10-01T02:56:54.191Z,1.80
2023-10-01T02:59:25.394Z,1.50
2023-10-01T03:01:56.653Z,1.50
2023-10-01T03:04:28.909Z,1.40
2023-10-01T03:07:06.339Z,1.50
2023-10-01T03:09:41.061Z,1.40
2023-10-01T03:12:30.982Z,1.70
2023-10-01T03:15:24.853Z,1.70
2023-10-01T03:18:07.446Z,1.70
2023-10-01T03:21:02.476Z,1.50
2023-10-01T03:23:34.994Z,1.40
2023-10-01T03:26:09.392Z,1.50
2023-10-01T03:28:55.322Z,1.80
2023-10-01T03:31:27.390Z,1.70
2023-10-01T03:34:00.480Z,1.40
2023-10-01T03:36:34.321Z,1.70
2023-10-01T03:42:12.282Z,1.70
2023-10-01T03:45:20.753Z,1.90
2023-10-01T03:47:58.734Z,1.60
2023-10-01T03:50:33.072Z,1.60
2023-10-01T03:53:12.398Z,1.80
2023-10-01T03:55:48.147Z,1.70
2023-10-01T03:58:28.046Z,1.60
2023-10-01T04:01:16.806Z,1.50
2023-10-01T04:03:48.450Z,1.70
2023-10-01T04:06:22.605Z,1.70
2023-10-01T04:08:56.927Z,1.40
2023-10-01T04:11:43.197Z,1.60
2023-10-01T04:14:18.668Z,1.50
2023-10-01T04:16:49.670Z,1.30
2023-10-01T04:19:21.336Z,1.60
2023-10-01T04:21:52.664Z,1.30
2023-10-01T04:24:24.212Z,1.70
2023-10-01T04:26:55.830Z,1.50
2023-10-01T04:29:46.428Z,1.30
2023-10-01T04:32:18.184Z,1.50
2023-10-01T04:34:51.042Z,1.70
2023-10-01T04:37:37.998Z,1.80
2023-10-01T04:40:25.084Z,2.00
2023-10-01T04:42:56.181Z,1.60
2023-10-01T04:45:37.493Z,1.50
2023-10-01T04:48:17.339Z,1.70
2023-10-01T04:50:51.188Z,1.50
2023-10-01T04:56:07.419Z,1.40
2023-10-01T04:58:39.183Z,1.50
2023-10-01T05:01:12.574Z,1.70
2023-10-01T05:03:45.933Z,1.80
2023-10-01T05:06:20.135Z,1.20
2023-10-01T05:08:54.813Z,1.50
2023-10-01T05:11:31.153Z,1.30
2023-10-01T05:14:06.017Z,1.50
2023-10-01T05:16:39.493Z,1.50
2023-10-01T05:21:48.291Z,1.00
2023-10-01T05:24:35.634Z,1.30
2023-10-01T05:27:09.791Z,1.50
2023-10-01T05:29:43.665Z,1.50
2023-10-01T05:32:14.853Z,1.60
2023-10-01T05:34:47.873Z,1.60
2023-10-01T05:37:26.557Z,1.70
2023-10-01T05:42:35.248Z,1.40
2023-10-01T05:45:16.061Z,1.70
2023-10-01T05:47:52.918Z,1.40
2023-10-01T05:50:30.311Z,1.20
2023-10-01T05:53:02.634Z,1.60
2023-10-01T05:55:34.070Z,1.60
2023-10-01T05:58:15.270Z,1.50
2023-10-01T06:00:52.143Z,1.20
2023-10-01T06:03:25.229Z,1.80
2023-10-01T06:06:00.401Z,1.40
2023-10-01T06:08:34.860Z,1.20
2023-10-01T06:11:10.553Z,1.40
2023-10-01T06:13:50.108Z,1.30
2023-10-01T06:16:25.185Z,1.70
2023-10-01T06:19:00.559Z,1.50
2023-10-01T06:21:33.695Z,1.60
2023-10-01T06:24:08.550Z,1.40
2023-10-01T06:26:44.208Z,1.20
2023-10-01T06:29:17.858Z,1.30
2023-10-01T06:32:01.855Z,1.70
2023-10-01T06:34:34.281Z,1.60
2023-10-01T06:37:06.854Z,1.50
2023-10-01T06:39:41.930Z,1.50
2023-10-01T06:42:25.557Z,1.60
2023-10-01T06:45:00.124Z,1.60
2023-10-01T06:47:31.235Z,1.80
2023-10-01T06:50:16.119Z,1.80
2023-10-01T06:52:47.976Z,1.60
2023-10-01T06:55:30.068Z,1.30
2023-10-01T06:58:07.384Z,1.50
2023-10-01T07:00:40.845Z,1.40
2023-10-01T07:03:23.024Z,1.40
2023-10-01T07:05:57.721Z,1.60
2023-10-01T07:08:38.968Z,1.40
2023-10-01T07:11:19.647Z,1.30
2023-10-01T07:13:53.676Z,1.50
2023-10-01T07:16:38.147Z,1.50
2023-10-01T07:19:13.013Z,1.50
2023-10-01T07:21:46.826Z,1.40
2023-10-01T07:26:48.221Z,1.20
2023-10-01T07:29:19.299Z,1.90
2023-10-01T07:31:50.179Z,1.20
2023-10-01T07:34:21.934Z,1.40
2023-10-01T07:36:53.026Z,1.60
2023-10-01T07:39:24.604Z,1.90
2023-10-01T07:41:55.458Z,1.80
2023-10-01T07:44:26.335Z,2.20
2023-10-01T07:46:57.147Z,2.00
2023-10-01T07:49:42.966Z,2.40
2023-10-01T07:54:43.725Z,1.70
2023-10-01T07:57:15.219Z,1.60
2023-10-01T07:59:47.917Z,1.70
2023-10-01T08:02:29.466Z,2.00
2023-10-01T08:05:00.562Z,1.80
2023-10-01T08:07:41.673Z,1.80
2023-10-01T08:10:19.846Z,1.80
2023-10-01T08:13:09.175Z,1.80
2023-10-01T08:15:59.375Z,2.30
2023-10-01T08:18:37.296Z,3.00
2023-10-01T08:21:16.891Z,2.50
2023-10-01T08:23:50.062Z,2.10
2023-10-01T08:26:44.747Z,1.90
2023-10-01T08:29:17.029Z,2.00
2023-10-01T08:32:05.913Z,1.60
2023-10-01T08:34:50.781Z,1.70
2023-10-01T08:37:25.062Z,1.80
2023-10-01T08:39:56.291Z,1.90
2023-10-01T08:42:31.063Z,2.60
2023-10-01T08:45:07.426Z,2.80
2023-10-01T08:47:39.030Z,3.20
2023-10-01T08:50:22.341Z,3.10
2023-10-01T08:52:56.941Z,3.70
2023-10-01T08:55:38.368Z,3.50
2023-10-01T08:58:26.335Z,4.40
2023-10-01T09:01:12.545Z,3.70
2023-10-01T09:03:50.364Z,3.20
2023-10-01T09:06:33.959Z,2.90
2023-10-01T09:09:27.599Z,3.10
2023-10-01T09:12:00.161Z,2.90
2023-10-01T09:14:41.206Z,2.70
2023-10-01T09:17:28.176Z,2.50
2023-10-01T09:20:07.740Z,2.00
2023-10-01T09:22:44.165Z,1.80
2023-10-01T09:25:22.650Z,2.20
2023-10-01T09:28:00.876Z,2.10
2023-10-01T09:30:36.244Z,1.80
2023-10-01T09:33:16.205Z,1.40
2023-10-01T09:35:57.609Z,1.60
2023-10-01T09:38:31.651Z,2.10
2023-10-01T09:41:02.820Z,2.00
2023-10-01T09:43:37.260Z,1.70
2023-10-01T09:46:09.759Z,1.70
2023-10-01T09:48:58.042Z,1.60
2023-10-01T09:51:33.020Z,1.60
2023-10-01T09:54:06.722Z,2.00
2023-10-01T09:56:48.093Z,1.70
2023-10-01T09:59:20.037Z,1.40
2023-10-01T10:01:53.723Z,1.40
2023-10-01T10:04:25.845Z,1.60
2023-10-01T10:07:02.221Z,1.30
2023-10-01T10:09:36.297Z,1.70
2023-10-01T10:12:09.650Z,1.30
2023-10-01T10:14:58.247Z,1.30
2023-10-01T10:17:40.145Z,1.50
2023-10-01T10:20:41.008Z,1.50
2023-10-01T10:23:17.912Z,1.70
2023-10-01T10:25:49.322Z,1.10
2023-10-01T10:28:58.174Z,1.40
2023-10-01T10:31:34.356Z,1.70
2023-10-01T10:34:27.535Z,1.30
2023-10-01T10:37:00.532Z,1.40
2023-10-01T10:40:28.189Z,1.40
2023-10-01T10:43:19.914Z,1.10
2023-10-01T10:46:05.900Z,1.70
2023-10-01T10:49:02.481Z,2.30
2023-10-01T10:51:52.447Z,1.70
2023-10-01T10:54:39.129Z,2.10
2023-10-01T10:57:12.099Z,1.60
2023-10-01T10:59:53.414Z,2.30
2023-10-01T11:02:24.844Z,1.70
2023-10-01T11:04:56.221Z,1.80
2023-10-01T11:07:37.195Z,1.80
2023-10-01T11:10:09.908Z,2.20
2023-10-01T11:12:56.141Z,2.30
2023-10-01T11:15:40.992Z,1.70
2023-10-01T11:18:12.928Z,2.40
2023-10-01T11:20:48.140Z,1.80
2023-10-01T11:23:21.613Z,2.70
2023-10-01T11:25:52.999Z,2.00
2023-10-01T11:28:23.862Z,1.80
2023-10-01T11:30:58.719Z,2.10
2023-10-01T11:33:31.673Z,2.00
2023-10-01T11:36:09.817Z,2.00
2023-10-01T11:38:46.343Z,2.20
2023-10-01T11:41:19.830Z,2.20
2023-10-01T11:44:01.356Z,2.40
2023-10-01T11:46:36.901Z,2.00
2023-10-01T11:49:29.738Z,2.60
2023-10-01T11:52:04.064Z,2.60
2023-10-01T11:54:45.916Z,1.70
2023-10-01T11:57:23.716Z,3.10
2023-10-01T11:59:57.066Z,2.00
2023-10-01T12:02:30.861Z,2.20
2023-10-01T12:05:05.122Z,1.70
2023-10-01T12:07:41.862Z,2.30
2023-10-01T12:10:33.256Z,1.70
2023-10-01T12:13:08.562Z,2.20
2023-10-01T12:15:44.525Z,2.20
2023-10-01T12:18:16.427Z,2.20
2023-10-01T12:20:51.641Z,2.20
2023-10-01T12:23:24.220Z,2.20
2023-10-01T12:26:15.108Z,2.40
2023-10-01T12:29:06.212Z,2.20
2023-10-01T12:31:38.320Z,2.00
2023-10-01T12:34:09.524Z,1.80
2023-10-01T12:36:45.781Z,2.30
2023-10-01T12:39:28.012Z,2.50
2023-10-01T12:41:58.980Z,1.80
2023-10-01T12:44:32.064Z,2.00
2023-10-01T12:47:06.639Z,2.20
2023-10-01T12:49:38.486Z,2.40
2023-10-01T12:52:15.831Z,2.10
2023-10-01T12:54:47.463Z,2.70
2023-10-01T12:57:23.303Z,1.90
2023-10-01T13:00:20.958Z,2.30
2023-10-01T13:02:51.802Z,2.20
2023-10-01T13:05:24.182Z,2.20
2023-10-01T13:07:58.197Z,2.10
2023-10-01T13:10:35.620Z,2.30
2023-10-01T13:13:09.354Z,2.70
2023-10-01T13:18:15.749Z,2.20
2023-10-01T13:21:00.348Z,2.20
2023-10-01T13:23:33.241Z,2.30
2023-10-01T13:26:16.239Z,1.80
2023-10-01T13:28:50.906Z,1.70
2023-10-01T13:31:42.181Z,2.30
2023-10-01T13:34:22.834Z,2.00
2023-10-01T13:37:13.479Z,2.40
2023-10-01T13:39:53.447Z,2.10
2023-10-01T13:42:42.018Z,2.20
2023-10-01T13:45:30.415Z,2.30
2023-10-01T13:48:18.953Z,1.70
2023-10-01T13:51:07.598Z,2.40
2023-10-01T13:53:56.332Z,2.30
2023-10-01T13:56:45.155Z,2.10
2023-10-01T13:59:33.937Z,2.30
2023-10-01T14:02:22.376Z,2.20
2023-10-01T14:05:10.968Z,1.90
2023-10-01T14:07:59.656Z,2.20
2023-10-01T14:10:37.642Z,2.10
2023-10-01T14:13:08.809Z,2.50
2023-10-01T14:15:39.638Z,2.00
2023-10-01T14:18:36.591Z,2.00
2023-10-01T14:21:14.011Z,2.30
2023-10-01T14:23:45.176Z,2.20
2023-10-01T14:26:19.631Z,2.30
2023-10-01T14:28:53.030Z,2.70
2023-10-01T14:31:38.323Z,1.80
2023-10-01T14:34:10.462Z,2.00
2023-10-01T14:36:41.966Z,2.00
2023-10-01T14:39:13.849Z,2.00
2023-10-01T14:41:47.064Z,2.30
2023-10-01T14:44:25.961Z,2.20
2023-10-01T14:46:59.548Z,2.20
2023-10-01T14:49:30.809Z,2.50
2023-10-01T14:52:01.754Z,2.50
2023-10-01T14:54:38.070Z,2.10
2023-10-01T14:57:09.768Z,2.10
2023-10-01T14:59:40.591Z,1.90
2023-10-01T15:02:17.047Z,2.20
2023-10-01T15:04:48.081Z,2.20
2023-10-01T15:07:20.569Z,2.30
2023-10-01T15:10:06.541Z,2.20
2023-10-01T15:12:46.658Z,2.40
2023-10-01T15:15:30.374Z,2.30
2023-10-01T15:18:21.815Z,2.40
2023-10-01T15:20:52.950Z,2.20
2023-10-01T15:23:24.000Z,1.70
2023-10-01T15:25:56.823Z,2.00
2023-10-01T15:28:28.537Z,2.00
2023-10-01T15:31:03.020Z,2.60
2023-10-01T15:33:33.992Z,1.90
2023-10-01T15:36:06.695Z,2.20
2023-10-01T15:38:38.425Z,2.50
2023-10-01T15:41:11.100Z,1.70
2023-10-01T15:43:52.069Z,2.40
2023-10-01T15:46:26.557Z,2.10
2023-10-01T15:48:57.764Z,2.50
2023-10-01T15:51:28.786Z,2.40
2023-10-01T15:54:00.054Z,2.40
2023-10-01T15:56:34.361Z,2.30
2023-10-01T15:59:12.498Z,2.20
2023-10-01T16:01:52.494Z,2.10
2023-10-01T16:04:27.804Z,2.70
2023-10-01T16:07:03.395Z,2.00
2023-10-01T16:09:40.987Z,2.30
2023-10-01T16:12:15.348Z,2.20
2023-10-01T16:14:59.070Z,2.20
2023-10-01T16:17:33.878Z,2.20
2023-10-01T16:20:20.078Z,2.40
2023-10-01T16:22:54.858Z,2.60
2023-10-01T16:25:28.173Z,2.20
2023-10-01T16:28:00.055Z,2.10
2023-10-01T16:30:31.136Z,2.40
2023-10-01T16:33:05.722Z,2.00
2023-10-01T16:35:37.813Z,2.20
2023-10-01T16:38:09.497Z,2.30
2023-10-01T16:40:40.760Z,2.10
2023-10-01T16:43:16.645Z,2.30
2023-10-01T16:45:47.731Z,2.00
2023-10-01T16:48:26.091Z,2.20
2023-10-01T16:51:04.993Z,2.20
2023-10-01T16:53:39.285Z,2.40
2023-10-01T16:56:16.863Z,2.30
2023-10-01T16:58:49.269Z,2.20
2023-10-01T17:01:22.415Z,2.20
2023-10-01T17:04:06.527Z,2.20
2023-10-01T17:06:41.076Z,1.90
2023-10-01T17:09:13.274Z,2.60
2023-10-01T17:11:45.884Z,2.10
2023-10-01T17:14:16.927Z,2.20
2023-10-01T17:16:49.579Z,2.10
2023-10-01T17:19:31.159Z,2.10
2023-10-01T17:22:09.916Z,2.20
2023-10-01T17:24:47.785Z,2.20
2023-10-01T17:27:20.490Z,2.60
2023-10-01T17:29:52.277Z,2.40
2023-10-01T17:32:27.780Z,2.00
2023-10-01T17:34:59.254Z,2.10
2023-10-01T17:37:31.250Z,2.00
2023-10-01T17:40:18.683Z,2.10
2023-10-01T17:42:53.071Z,2.30
2023-10-01T17:45:24.497Z,2.40
2023-10-01T17:47:56.037Z,2.50
2023-10-01T17:50:27.338Z,2.30
2023-10-01T17:52:58.683Z,2.30
2023-10-01T17:55:30.782Z,2.40
2023-10-01T17:58:01.819Z,2.10
2023-10-01T18:00:43.506Z,2.10
2023-10-01T18:03:17.798Z,2.40
2023-10-01T18:06:00.702Z,2.50
2023-10-01T18:08:36.415Z,2.20
2023-10-01T18:11:12.466Z,2.30
2023-10-01T18:13:46.282Z,2.40
2023-10-01T18:16:27.236Z,2.70
2023-10-01T18:19:08.516Z,1.90
2023-10-01T18:21:41.034Z,2.50
2023-10-01T18:24:12.463Z,2.20
2023-10-01T18:26:47.018Z,2.10
2023-10-01T18:29:20.728Z,2.30
2023-10-01T18:31:51.738Z,3.30
2023-10-01T18:34:27.131Z,2.40
2023-10-01T18:37:02.930Z,2.50
2023-10-01T18:39:34.700Z,2.10
2023-10-01T18:42:06.834Z,2.30
2023-10-01T18:44:37.984Z,2.70
2023-10-01T18:47:10.039Z,2.50
2023-10-01T18:49:41.400Z,2.30
2023-10-01T18:52:12.954Z,2.60
2023-10-01T18:54:44.183Z,2.20
2023-10-01T18:57:15.842Z,2.00
2023-10-01T18:59:49.802Z,2.40
2023-10-01T19:02:24.132Z,2.40
2023-10-01T19:04:55.485Z,2.70
2023-10-01T19:07:29.182Z,2.40
2023-10-01T19:10:00.380Z,2.40
2023-10-01T19:12:31.845Z,2.20
2023-10-01T19:15:02.920Z,2.50
2023-10-01T19:17:34.478Z,2.20
2023-10-01T19:20:17.176Z,2.00
2023-10-01T19:22:52.623Z,2.40
2023-10-01T19:25:24.399Z,2.40
2023-10-01T19:27:57.259Z,2.50
2023-10-01T19:30:29.269Z,2.90
2023-10-01T19:33:00.429Z,2.60
2023-10-01T19:35:33.442Z,2.50
2023-10-01T19:38:04.911Z,2.50
2023-10-01T19:40:36.178Z,2.50
2023-10-01T19:43:08.107Z,2.60
2023-10-01T19:45:42.074Z,2.60
2023-10-01T19:48:16.531Z,2.20
2023-10-01T19:50:48.976Z,2.40
2023-10-01T19:53:23.948Z,2.50
2023-10-01T19:55:56.906Z,2.70
2023-10-01T19:58:32.552Z,2.70
2023-10-01T20:01:08.531Z,2.20
2023-10-01T20:03:42.208Z,2.30
2023-10-01T20:06:19.128Z,2.30
2023-10-01T20:08:57.268Z,2.90
2023-10-01T20:11:32.833Z,2.20
2023-10-01T20:14:08.538Z,2.70
2023-10-01T20:16:40.725Z,2.30
2023-10-01T20:19:16.969Z,2.00
2023-10-01T20:21:50.686Z,2.80
2023-10-01T20:24:25.123Z,2.90
2023-10-01T20:26:57.262Z,2.70
2023-10-01T20:29:29.609Z,2.00
2023-10-01T20:32:04.419Z,2.40
2023-10-01T20:34:43.402Z,2.20
2023-10-01T20:37:17.925Z,2.50
2023-10-01T20:39:49.186Z,2.40
2023-10-01T20:42:19.968Z,2.40
2023-10-01T20:44:55.577Z,2.60
2023-10-01T20:47:26.705Z,2.40
2023-10-01T20:49:59.129Z,2.30
2023-10-01T20:52:32.154Z,2.60
2023-10-01T20:57:49.470Z,2.70
2023-10-01T21:00:39.044Z,3.20
2023-10-01T21:03:12.670Z,2.20
2023-10-01T21:05:44.114Z,2.20
2023-10-01T21:08:21.223Z,2.50
2023-10-01T21:10:52.832Z,2.50
2023-10-01T21:13:29.572Z,2.30
2023-10-01T21:16:06.781Z,2.10
2023-10-01T21:18:39.628Z,2.30
2023-10-01T21:21:12.424Z,2.50
2023-10-01T21:23:45.827Z,2.40
2023-10-01T21:26:25.234Z,2.50
2023-10-01T21:29:00.105Z,2.20
2023-10-01T21:31:30.973Z,2.20
2023-10-01T21:34:16.541Z,2.50
2023-10-01T21:36:51.235Z,2.80
2023-10-01T21:39:24.536Z,2.50
2023-10-01T21:42:02.090Z,2.10
2023-10-01T21:44:33.272Z,2.60
2023-10-01T21:47:08.515Z,2.50
2023-10-01T21:49:48.620Z,2.40
2023-10-01T21:52:25.451Z,2.00
2023-10-01T21:54:58.752Z,3.70
2023-10-01T21:57:31.135Z,2.40
2023-10-01T22:00:02.226Z,2.50
2023-10-01T22:02:33.113Z,2.30
2023-10-01T22:05:04.364Z,2.60
2023-10-01T22:07:35.524Z,2.60
2023-10-01T22:10:24.826Z,2.50
2023-10-01T22:12:55.626Z,2.60
2023-10-01T22:15:29.218Z,2.70
2023-10-01T22:18:00.280Z,2.90
2023-10-01T22:20:35.635Z,2.50
2023-10-01T22:23:08.451Z,2.20
2023-10-01T22:25:40.702Z,2.80
2023-10-01T22:28:11.757Z,2.60
2023-10-01T22:30:43.036Z,2.60
2023-10-01T22:33:17.466Z,2.60
2023-10-01T22:35:49.717Z,2.70
2023-10-01T22:38:21.163Z,3.20
2023-10-01T22:40:52.715Z,2.60
2023-10-01T22:43:28.319Z,2.50
2023-10-01T22:46:08.665Z,2.60
2023-10-01T22:48:46.121Z,2.60
2023-10-01T22:51:25.190Z,3.40
2023-10-01T22:54:01.536Z,2.80
2023-10-01T22:56:35.313Z,2.40
2023-10-01T22:59:07.313Z,2.50
2023-10-01T23:01:39.084Z,2.40
2023-10-01T23:04:17.876Z,2.80
2023-10-01T23:06:49.786Z,2.90
2023-10-01T23:09:21.020Z,2.20
2023-10-01T23:11:54.952Z,2.50
2023-10-01T23:14:29.526Z,2.60
2023-10-01T23:17:00.467Z,2.30
2023-10-01T23:19:35.837Z,2.50
2023-10-01T23:22:11.983Z,2.70
2023-10-01T23:24:53.043Z,2.60
2023-10-01T23:27:45.745Z,2.50
2023-10-01T23:30:24.458Z,2.40
2023-10-01T23:33:01.393Z,2.80
2023-10-01T23:36:00.196Z,2.40
2023-10-01T23:38:37.757Z,2.70
2023-10-01T23:41:28.922Z,2.60
2023-10-01T23:44:00.715Z,2.60
2023-10-01T23:46:34.849Z,2.50
2023-10-01T23:49:05.917Z,2.60
2023-10-01T23:51:42.909Z,2.40
2023-10-01T23:54:20.972Z,2.80
2023-10-01T23:56:54.394Z,2.40
2023-10-01T23:59:32.410Z,2.90
